Time;durP1;ratioP1;P1;durP2;ratioP2;P2;SDS_P1;SDS_P2;PMS_P1;PMS_P2;Temp;Humidity;BMP_temperature;BMP_pressure;BME280_temperature;BME280_humidity;BME280_pressure;Samples;Min_cycle;Max_cycle;Signal;HPM_P1;HPM_P2
2024/01/17 00:00:23;;;;;;;;;6.50;6.00;;;;;21.27;44.24;99970.28;112390;1260;18691;-74
2024/01/17 00:03:11;;;;;;;;;6.00;4.00;;;;;21.27;44.07;99963.84;112212;1260;22586;-73
2024/01/17 00:05:38;;;;;;;;;4.00;4.00;;;;;21.28;43.90;99959.98;112388;1260;19472;-74
2024/01/17 00:08:06;;;;;;;;;6.00;4.00;;;;;21.27;43.96;99959.98;112209;1244;18749;-74
2024/01/17 00:10:33;;;;;;;;;4.00;4.00;;;;;21.28;44.08;99960.51;112405;1247;21021;-73
2024/01/17 00:13:01;;;;;;;;;4.00;4.00;;;;;21.30;44.43;99952.27;112208;1260;19463;-74
2024/01/17 00:15:28;;;;;;;;;3.50;3.50;;;;;21.29;43.83;99955.22;112119;1260;346875;-73
2024/01/17 00:17:55;;;;;;;;;7.00;6.00;;;;;21.28;43.85;99954.15;112293;1245;20955;-74
2024/01/17 00:20:23;;;;;;;;;5.33;4.67;;;;;21.29;43.68;99958.85;112474;1260;18359;-74
2024/01/17 00:22:50;;;;;;;;;4.00;4.00;;;;;21.31;43.85;99955.00;112294;1255;18875;-74
2024/01/17 00:25:18;;;;;;;;;6.00;6.00;;;;;21.29;43.79;99949.45;112481;1244;19899;-74
2024/01/17 00:27:49;;;;;;;;;6.00;6.00;;;;;21.28;43.84;99950.38;112332;1260;22081;-74
2024/01/17 00:30:16;;;;;;;;;5.00;5.00;;;;;21.28;43.70;99947.39;112241;1260;19014;-73
2024/01/17 00:32:43;;;;;;;;;4.00;4.00;;;;;21.29;43.51;99950.86;112481;1244;20768;-73
2024/01/17 00:35:11;;;;;;;;;5.33;3.67;;;;;21.30;43.79;99953.13;112310;1260;18131;-73
2024/01/17 00:37:38;;;;;;;;;9.00;7.00;;;;;21.31;43.72;99948.81;112466;1260;18718;-74
2024/01/17 00:40:06;;;;;;;;;6.00;6.00;;;;;21.32;43.58;99949.58;112360;1260;20647;-74
2024/01/17 00:42:33;;;;;;;;;6.67;6.00;;;;;21.30;43.50;99946.15;112475;1260;18433;-74
2024/01/17 00:45:03;;;;;;;;;4.00;4.00;;;;;21.29;43.64;99942.35;112289;1260;20476;-74
2024/01/17 00:47:30;;;;;;;;;4.00;4.00;;;;;21.31;43.41;99946.26;112240;1247;20888;-74
2024/01/17 00:49:58;;;;;;;;;6.00;6.00;;;;;21.31;43.23;99947.19;112157;1246;19558;-74
2024/01/17 00:52:26;;;;;;;;;4.00;4.00;;;;;21.28;43.34;99952.51;112290;1261;19649;-74
2024/01/17 00:54:53;;;;;;;;;6.00;6.00;;;;;21.27;43.45;99955.09;112177;1256;18597;-74
2024/01/17 00:57:20;;;;;;;;;6.00;6.00;;;;;21.26;43.54;99958.47;112292;1261;18133;-72
2024/01/17 00:59:48;;;;;;;;;4.00;4.00;;;;;21.27;43.37;99964.61;112214;1261;18842;-73
2024/01/17 01:02:15;;;;;;;;;4.00;4.00;;;;;21.26;43.20;99968.28;112339;1261;19711;-73
2024/01/17 01:04:43;;;;;;;;;4.00;4.00;;;;;21.24;43.10;99964.38;112235;1254;18244;-72
2024/01/17 01:07:10;;;;;;;;;6.00;4.00;;;;;21.24;43.28;99965.52;112372;1256;18651;-73
2024/01/17 01:09:38;;;;;;;;;4.00;4.00;;;;;21.25;43.11;99967.04;112276;1247;20877;-73
2024/01/17 01:12:05;;;;;;;;;6.00;4.00;;;;;21.25;43.11;99965.46;112376;1247;19788;-72
2024/01/17 01:14:32;;;;;;;;;4.00;4.00;;;;;21.26;42.95;99964.14;112256;1261;18722;-73
2024/01/17 01:17:00;;;;;;;;;6.00;6.00;;;;;21.24;43.07;99963.89;112366;1261;20904;-73
2024/01/17 01:19:27;;;;;;;;;6.50;6.50;;;;;21.25;42.87;99958.22;112259;1261;19727;-72
2024/01/17 01:21:55;;;;;;;;;5.00;5.00;;;;;21.24;42.96;99954.69;112403;1261;20273;-73
2024/01/17 01:24:22;;;;;;;;;7.00;6.00;;;;;21.23;43.03;99957.20;112138;1256;21001;-73
2024/01/17 01:26:50;;;;;;;;;6.00;6.00;;;;;21.23;42.75;99958.07;112198;1262;19513;-72
2024/01/17 01:29:17;;;;;;;;;6.00;6.00;;;;;21.23;42.79;99965.54;112297;1261;18583;-73
2024/01/17 01:31:45;;;;;;;;;4.00;4.00;;;;;21.23;42.65;99966.46;112202;1254;19555;-73
2024/01/17 01:34:12;;;;;;;;;7.00;6.00;;;;;21.23;43.02;99959.88;112356;1248;18398;-73
2024/01/17 01:36:39;;;;;;;;;4.00;4.00;;;;;21.23;42.74;99957.42;112226;1246;19006;-73
2024/01/17 01:39:07;;;;;;;;;6.00;6.00;;;;;21.23;42.82;99953.51;112366;1261;19788;-72
2024/01/17 01:41:34;;;;;;;;;4.00;4.00;;;;;21.22;42.73;99948.33;112290;1248;19528;-72
2024/01/17 01:44:02;;;;;;;;;4.00;4.00;;;;;21.23;42.58;99942.77;112261;1257;19955;-73
2024/01/17 01:46:29;;;;;;;;;6.00;6.00;;;;;21.22;42.67;99944.63;112283;1247;22172;-72
2024/01/17 01:48:57;;;;;;;;;4.00;3.00;;;;;21.22;42.62;99941.69;112402;1260;18181;-72
2024/01/17 01:51:24;;;;;;;;;4.00;4.00;;;;;21.22;42.47;99934.92;112252;1260;18687;-73
2024/01/17 01:53:52;;;;;;;;;4.00;4.00;;;;;21.21;42.65;99936.73;112372;1260;20807;-73
2024/01/17 01:56:19;;;;;;;;;6.00;6.00;;;;;21.21;42.17;99931.05;112284;1260;18612;-73
2024/01/17 01:58:46;;;;;;;;;6.00;4.00;;;;;21.21;42.31;99931.06;112416;1260;18830;-72
2024/01/17 02:01:14;;;;;;;;;4.00;4.00;;;;;21.22;42.20;99927.95;112300;1260;20989;-72
2024/01/17 02:03:42;;;;;;;;;4.00;4.00;;;;;21.21;42.36;99920.60;112271;1253;18265;-72
2024/01/17 02:06:10;;;;;;;;;6.00;6.00;;;;;21.21;42.17;99920.45;112287;1260;18654;-72
2024/01/17 02:08:38;;;;;;;;;4.00;4.00;;;;;21.21;42.28;99921.52;112423;1245;21110;-72
2024/01/17 02:11:05;;;;;;;;;7.00;6.67;;;;;21.20;42.43;99926.11;112291;1260;18212;-72
2024/01/17 02:13:33;;;;;;;;;7.00;4.67;;;;;21.21;42.32;99929.59;112435;1260;19946;-72
2024/01/17 02:16:00;;;;;;;;;6.00;6.00;;;;;21.20;42.30;99926.70;112271;1253;19750;-72
2024/01/17 02:18:27;;;;;;;;;4.00;4.00;;;;;21.20;42.22;99922.40;112419;1247;19964;-73
2024/01/17 02:20:55;;;;;;;;;4.00;4.00;;;;;21.20;42.23;99917.38;112295;1260;20191;-73
2024/01/17 02:23:22;;;;;;;;;5.00;4.00;;;;;21.20;42.11;99920.49;112373;1245;20970;-72
2024/01/17 02:25:50;;;;;;;;;6.00;4.00;;;;;21.20;41.96;99920.50;112330;1260;19294;-72
2024/01/17 02:28:18;;;;;;;;;6.00;4.00;;;;;21.20;42.18;99919.20;112407;1260;18850;-72
2024/01/17 02:30:45;;;;;;;;;6.00;6.00;;;;;21.20;42.15;99918.98;112322;1260;19523;-73
2024/01/17 02:33:13;;;;;;;;;4.00;4.00;;;;;21.20;42.08;99920.23;112300;1246;19716;-72
2024/01/17 02:35:40;;;;;;;;;4.67;4.00;;;;;21.20;42.31;99915.92;112300;1260;18828;-73
2024/01/17 02:38:08;;;;;;;;;4.00;4.00;;;;;21.20;41.99;99913.27;112273;1245;19529;-72
2024/01/17 02:40:35;;;;;;;;;5.33;5.33;;;;;21.20;42.14;99905.69;112301;1260;20998;-73
2024/01/17 02:43:03;;;;;;;;;6.00;4.00;;;;;21.19;41.82;99909.78;112197;1260;20133;-72
2024/01/17 02:45:30;;;;;;;;;3.00;3.00;;;;;21.20;41.89;99904.27;112354;1252;21085;-73
2024/01/17 02:47:58;;;;;;;;;4.00;4.00;;;;;21.20;41.83;99895.23;112246;1260;19517;-71
2024/01/17 02:50:25;;;;;;;;;4.00;4.00;;;;;21.19;41.81;99896.50;112469;1260;18649;-72
2024/01/17 02:52:53;;;;;;;;;6.50;4.00;;;;;21.18;41.95;99891.38;112252;1260;20852;-72
2024/01/17 02:55:22;;;;;;;;;6.00;4.00;;;;;21.19;41.98;99891.91;112421;1260;18100;-72
2024/01/17 02:57:50;;;;;;;;;7.00;6.00;;;;;21.19;41.74;99893.71;112484;1253;20392;-73
2024/01/17 03:00:18;;;;;;;;;6.00;6.00;;;;;21.17;41.81;99896.57;112280;1260;21016;-72
2024/01/17 03:02:45;;;;;;;;;3.33;3.33;;;;;21.18;41.86;99895.86;112472;1260;19465;-73
2024/01/17 03:05:13;;;;;;;;;6.00;4.00;;;;;21.18;41.75;99888.12;112280;1254;18691;-72
2024/01/17 03:07:40;;;;;;;;;3.00;3.00;;;;;21.18;41.55;99887.41;112497;1244;21973;-72
2024/01/17 03:10:09;;;;;;;;;4.00;4.00;;;;;21.17;41.79;99886.22;112308;1245;19547;-73
2024/01/17 03:12:36;;;;;;;;;3.50;3.50;;;;;21.18;41.69;99888.98;112468;1246;20460;-72
2024/01/17 03:15:03;;;;;;;;;6.00;6.00;;;;;21.18;41.74;99888.02;112255;1244;19482;-73
2024/01/17 03:17:31;;;;;;;;;4.00;4.00;;;;;21.18;41.71;99891.38;112471;1244;18552;-73
2024/01/17 03:19:58;;;;;;;;;4.00;4.00;;;;;21.18;41.55;99902.83;112298;1260;20249;-72
2024/01/17 03:22:26;;;;;;;;;4.00;4.00;;;;;21.17;41.49;99906.81;112505;1260;20802;-74
2024/01/17 03:24:53;;;;;;;;;4.00;4.00;;;;;21.17;41.66;99904.25;112313;1244;19581;-73
2024/01/17 03:27:21;;;;;;;;;6.00;6.00;;;;;21.17;41.57;99900.88;112506;1260;18599;-72
2024/01/17 03:29:48;;;;;;;;;4.00;4.00;;;;;21.17;41.41;99899.52;112346;1245;20709;-73
2024/01/17 03:32:16;;;;;;;;;7.00;6.00;;;;;21.16;41.51;99895.49;112549;1252;18576;-73
2024/01/17 03:34:43;;;;;;;;;4.00;4.00;;;;;21.17;41.42;99898.26;112339;1260;18950;-73
2024/01/17 03:37:11;;;;;;;;;6.00;4.00;;;;;21.16;41.43;99897.51;112326;1260;19759;-72
2024/01/17 03:39:39;;;;;;;;;4.00;4.00;;;;;21.17;41.58;99900.88;112323;1260;20631;-72
2024/01/17 03:42:06;;;;;;;;;3.00;3.00;;;;;21.17;41.56;99898.92;112430;1260;18481;-73
2024/01/17 03:44:33;;;;;;;;;7.00;7.00;;;;;21.16;41.31;99891.26;112366;1260;19350;-73
2024/01/17 03:47:01;;;;;;;;;4.00;4.00;;;;;21.15;41.23;99886.95;112208;1255;18607;-72
2024/01/17 03:49:28;;;;;;;;;7.00;6.00;;;;;21.15;41.20;99893.93;112342;1255;18816;-72
2024/01/17 03:51:56;;;;;;;;;4.00;4.00;;;;;21.15;41.33;99889.63;112004;1257;20792;-72
2024/01/17 03:54:23;;;;;;;;;6.00;6.00;;;;;21.15;41.16;99884.34;112241;1262;18219;-73
2024/01/17 03:56:51;;;;;;;;;4.00;4.00;;;;;21.16;41.42;99881.72;112068;1247;21043;-73
2024/01/17 03:59:18;;;;;;;;;4.00;4.00;;;;;21.16;41.24;99875.08;112259;1255;19365;-72
2024/01/17 04:01:46;;;;;;;;;4.00;4.00;;;;;21.14;41.32;99869.54;112139;1247;19618;-73
2024/01/17 04:04:13;;;;;;;;;6.50;6.00;;;;;21.15;41.41;99871.17;112384;1257;18704;-72
2024/01/17 04:06:41;;;;;;;;;6.50;6.00;;;;;21.15;40.96;99874.05;112234;1261;19581;-72
2024/01/17 04:09:08;;;;;;;;;9.67;6.00;;;;;21.15;41.42;99874.32;112364;1261;18616;-73
2024/01/17 04:11:35;;;;;;;;;4.00;4.00;;;;;21.15;41.13;99876.88;112231;1261;20308;-72
2024/01/17 04:14:03;;;;;;;;;6.00;4.00;;;;;21.15;41.18;99876.83;112418;1254;20790;-73
2024/01/17 04:16:30;;;;;;;;;6.00;6.00;;;;;21.15;41.19;99879.12;112291;1247;19626;-72
2024/01/17 04:18:58;;;;;;;;;7.00;6.00;;;;;21.15;40.95;99878.58;112429;1247;20251;-73
2024/01/17 04:21:26;;;;;;;;;7.00;6.00;;;;;21.15;40.89;99878.42;112284;1261;19422;-74
2024/01/17 04:23:53;;;;;;;;;7.00;6.00;;;;;21.15;41.15;99876.78;112444;1255;19594;-73
2024/01/17 04:26:23;;;;;;;;;4.00;4.00;;;;;21.16;40.97;99883.80;112309;1254;18637;-73
2024/01/17 04:28:50;;;;;;;;;5.00;5.00;;;;;21.15;40.94;99879.29;112299;1261;19245;-74
2024/01/17 04:31:18;;;;;;;;;4.00;4.00;;;;;21.14;40.98;99883.34;112206;1246;19247;-74
2024/01/17 04:33:45;;;;;;;;;6.00;5.00;;;;;21.14;40.97;99883.71;112319;1248;20083;-73
2024/01/17 04:36:13;;;;;;;;;6.00;6.00;;;;;21.14;41.09;99878.31;112231;1261;21222;-73
2024/01/17 04:38:40;;;;;;;;;4.00;4.00;;;;;21.13;41.00;99869.00;112318;1261;19471;-73
2024/01/17 04:41:08;;;;;;;;;7.00;6.00;;;;;21.13;40.84;99865.92;112210;1254;18616;-74
2024/01/17 04:43:35;;;;;;;;;7.00;6.50;;;;;21.12;40.91;99862.77;112368;1247;21261;-73
2024/01/17 04:46:03;;;;;;;;;6.33;6.33;;;;;21.13;40.87;99860.48;112270;1247;19554;-74
2024/01/17 04:48:30;;;;;;;;;9.50;8.00;;;;;21.12;40.74;99862.06;112367;1249;20082;-74
2024/01/17 04:50:58;;;;;;;;;7.67;7.00;;;;;21.12;40.81;99861.29;112265;1261;19503;-75
2024/01/17 04:53:26;;;;;;;;;11.00;10.00;;;;;21.12;40.76;99868.05;112311;1246;19817;-74
2024/01/17 04:55:53;;;;;;;;;6.33;5.33;;;;;21.12;40.82;99873.33;112182;1261;18817;-73
2024/01/17 04:58:21;;;;;;;;;7.00;7.00;;;;;21.12;40.65;99874.27;112314;1261;19522;-75
2024/01/17 05:00:48;;;;;;;;;9.00;7.00;;;;;21.12;40.72;99869.95;112188;1261;19810;-74
2024/01/17 05:03:16;;;;;;;;;7.00;6.00;;;;;21.12;40.65;99870.77;112370;1253;20169;-74
2024/01/17 05:05:43;;;;;;;;;7.00;7.00;;;;;21.12;40.88;99866.80;112248;1261;19328;-74
2024/01/17 05:08:11;;;;;;;;;7.00;7.00;;;;;21.12;40.52;99862.45;112357;1254;19517;-74
2024/01/17 05:10:38;;;;;;;;;6.00;6.00;;;;;21.11;40.65;99864.58;112271;1262;18647;-74
2024/01/17 05:13:06;;;;;;;;;6.00;6.00;;;;;21.12;40.54;99862.29;112432;1246;19420;-74
2024/01/17 05:15:33;;;;;;;;;7.00;7.00;;;;;21.10;40.73;99854.89;112271;1246;19551;-74
2024/01/17 05:18:01;;;;;;;;;7.00;7.00;;;;;21.11;40.62;99858.30;112409;1261;19969;-75
2024/01/17 05:20:28;;;;;;;;;8.00;7.00;;;;;21.12;40.48;99859.66;112291;1248;21010;-73
2024/01/17 05:22:56;;;;;;;;;9.33;7.00;;;;;21.11;40.76;99852.81;112365;1262;18220;-73
2024/01/17 05:25:23;;;;;;;;;7.00;7.00;;;;;21.11;40.67;99849.71;112291;1261;19957;-74
2024/01/17 05:27:52;;;;;;;;;10.00;9.00;;;;;21.11;40.60;99847.91;112182;1254;20956;-73
2024/01/17 05:30:20;;;;;;;;;9.00;7.00;;;;;21.12;40.37;99851.06;112246;1255;18677;-74
2024/01/17 05:32:47;;;;;;;;;7.00;7.00;;;;;21.11;40.67;99845.90;112362;1261;19955;-74
2024/01/17 05:35:15;;;;;;;;;6.00;6.00;;;;;21.12;40.50;99848.18;112218;1261;20985;-74
2024/01/17 05:37:43;;;;;;;;;9.00;7.00;;;;;21.11;40.83;99847.97;112374;1255;18525;-74
2024/01/17 05:40:10;;;;;;;;;9.50;9.00;;;;;21.11;40.54;99844.86;112232;1260;18617;-73
2024/01/17 05:42:38;;;;;;;;;10.00;9.50;;;;;21.10;40.52;99840.09;112459;1244;19446;-74
2024/01/17 05:45:07;;;;;;;;;9.33;9.00;;;;;21.10;40.35;99833.94;112277;1260;18578;-74
2024/01/17 05:47:35;;;;;;;;;6.00;6.00;;;;;21.10;40.36;99833.06;112334;1260;18995;-74
2024/01/17 05:50:03;;;;;;;;;7.00;7.00;;;;;21.10;40.55;99830.83;112494;1260;19489;-73
2024/01/17 05:52:31;;;;;;;;;7.00;7.00;;;;;21.09;40.24;99829.91;112277;1244;20017;-73
2024/01/17 05:54:58;;;;;;;;;7.00;6.50;;;;;21.09;40.40;99828.06;112322;1255;19871;-74
2024/01/17 05:57:26;;;;;;;;;9.00;7.00;;;;;21.09;40.39;99829.58;112305;1260;20878;-74
2024/01/17 05:59:53;;;;;;;;;4.00;4.00;;;;;21.08;40.56;99827.20;112499;1253;18141;-74
2024/01/17 06:02:20;;;;;;;;;9.00;7.00;;;;;21.10;40.34;99826.04;112285;1244;20230;-73
2024/01/17 06:04:48;;;;;;;;;6.33;6.00;;;;;21.09;40.26;99820.39;112537;1244;19823;-74
2024/01/17 06:07:16;;;;;;;;;9.00;7.00;;;;;21.08;40.41;99819.20;112348;1260;18154;-74
2024/01/17 06:09:43;;;;;;;;;9.00;7.00;;;;;21.08;40.43;99814.26;112542;1260;18557;-73
2024/01/17 06:12:11;;;;;;;;;7.00;7.00;;;;;21.09;40.37;99820.55;112342;1255;19751;-74
2024/01/17 06:14:40;;;;;;;;;7.00;6.00;;;;;21.08;40.19;99821.11;112549;1260;19481;-74
2024/01/17 06:17:08;;;;;;;;;9.00;7.00;;;;;21.09;40.20;99822.63;112199;1248;20520;-75
2024/01/17 06:19:35;;;;;;;;;7.00;6.00;;;;;21.07;40.23;99819.92;112404;1260;19368;-74
2024/01/17 06:22:03;;;;;;;;;6.00;6.00;;;;;21.08;40.24;99822.14;112240;1260;18176;-74
2024/01/17 06:24:30;;;;;;;;;7.00;7.00;;;;;21.08;40.12;99824.86;112406;1260;20225;-75
2024/01/17 06:26:58;;;;;;;;;6.00;6.00;;;;;21.09;40.10;99821.04;112275;1254;21271;-74
2024/01/17 06:29:26;;;;;;;;;10.00;7.00;;;;;21.08;40.10;99815.45;112418;1247;20835;-73
2024/01/17 06:31:53;;;;;;;;;7.00;7.00;;;;;21.08;40.09;99818.61;112265;1244;19094;-74
2024/01/17 06:34:21;;;;;;;;;7.00;7.00;;;;;21.07;40.03;99819.50;112408;1248;21101;-74
2024/01/17 06:36:48;;;;;;;;;;;;;;;21.09;40.28;99811.68;112240;1260;19460;-74
2024/01/17 06:39:17;;;;;;;;;9.00;8.00;;;;;21.22;39.80;99803.59;112277;1252;18394;-74
2024/01/17 06:41:44;;;;;;;;;9.00;7.00;;;;;21.20;39.78;99804.15;112382;1259;22189;-74
2024/01/17 06:44:11;;;;;;;;;7.00;7.00;;;;;21.32;40.11;99798.99;112297;1246;19544;-74
2024/01/17 06:46:39;;;;;;;;;10.00;7.00;;;;;21.31;40.32;99793.55;112342;1247;20069;-75
2024/01/17 06:49:06;;;;;;;;;6.00;5.00;;;;;21.22;40.81;99797.83;112494;1255;19374;-74
2024/01/17 06:51:34;;;;;;;;;6.00;6.00;;;;;21.18;40.84;99796.30;112389;1260;18817;-76
2024/01/17 06:54:01;;;;;;;;;6.00;6.00;;;;;21.21;40.91;99796.85;112196;1260;18608;-75
2024/01/17 06:56:28;;;;;;;;;9.00;9.00;;;;;21.32;40.81;99793.44;112398;1245;20762;-73
2024/01/17 06:58:56;;;;;;;;;7.00;6.00;;;;;21.33;41.24;99792.59;112210;1260;18293;-74
2024/01/17 07:01:24;;;;;;;;;7.00;6.00;;;;;21.21;41.31;99789.44;112423;1253;18698;-75
2024/01/17 07:03:51;;;;;;;;;6.33;6.00;;;;;21.33;41.08;99786.10;112292;1260;20801;-74
2024/01/17 07:06:18;;;;;;;;;12.00;9.00;;;;;21.35;41.16;99788.64;112394;1260;19440;-73
2024/01/17 07:08:46;;;;;;;;;8.00;7.00;;;;;21.26;41.20;99781.70;112280;1260;20490;-73
2024/01/17 07:11:14;;;;;;;;;8.00;6.50;;;;;21.30;41.31;99783.81;112395;1247;20800;-71
2024/01/17 07:13:42;;;;;;;;;7.00;7.00;;;;;21.24;41.51;99784.35;112255;1248;19931;-72
2024/01/17 07:16:09;;;;;;;;;4.00;4.00;;;;;21.21;41.60;99784.48;112441;1260;18572;-76
2024/01/17 07:18:37;;;;;;;;;4.00;4.00;;;;;21.21;41.58;99782.09;112309;1244;19365;-74
2024/01/17 07:21:04;;;;;;;;;9.00;6.50;;;;;21.16;41.87;99776.01;112411;1260;19969;-74
2024/01/17 07:23:32;;;;;;;;;7.00;6.00;;;;;21.13;41.78;99774.05;112335;1260;18519;-74
2024/01/17 07:26:00;;;;;;;;;4.00;4.00;;;;;21.12;41.90;99770.18;112391;1260;22016;-75
2024/01/17 07:28:27;;;;;;;;;6.00;6.00;;;;;21.09;41.84;99763.86;112273;1253;18649;-74
2024/01/17 07:30:54;;;;;;;;;7.00;7.00;;;;;21.09;42.07;99759.39;112412;1260;21288;-74
2024/01/17 07:33:22;;;;;;;;;5.00;4.00;;;;;21.06;41.91;99758.40;112312;1260;19389;-74
2024/01/17 07:35:49;;;;;;;;;6.00;6.00;;;;;21.10;41.69;99756.15;112345;1247;19571;-76
2024/01/17 07:38:17;;;;;;;;;6.00;6.00;;;;;21.12;41.64;99746.98;112282;1260;18633;-75
2024/01/17 07:40:44;;;;;;;;;6.50;6.50;;;;;21.16;41.85;99744.68;112518;1260;19331;-74
2024/01/17 07:43:12;;;;;;;;;7.00;6.00;;;;;21.17;41.97;99737.86;112376;1247;19922;-75
2024/01/17 07:45:39;;;;;;;;;7.00;7.00;;;;;21.22;41.66;99730.56;112498;1260;20295;-74
2024/01/17 07:48:08;;;;;;;;;9.00;9.00;;;;;21.20;41.83;99721.20;112390;1246;20779;-73
2024/01/17 07:50:37;;;;;;;;;7.00;7.00;;;;;21.27;41.41;99720.88;112413;1260;19702;-74
2024/01/17 07:53:07;;;;;;;;;7.00;7.00;;;;;21.42;41.34;99715.58;112301;1253;19285;-74
2024/01/17 07:55:34;;;;;;;;;9.00;7.00;;;;;21.31;41.13;99712.42;112520;1260;20714;-79
2024/01/17 07:58:02;;;;;;;;;7.00;6.00;;;;;21.40;41.30;99704.22;112345;1260;18770;-72
2024/01/17 08:00:30;;;;;;;;;6.00;6.00;;;;;21.32;41.37;99700.15;112380;1260;18667;-73
2024/01/17 08:02:57;;;;;;;;;7.00;6.00;;;;;21.19;41.51;99697.20;112229;1256;20826;-73
2024/01/17 08:05:26;;;;;;;;;9.50;9.50;;;;;21.14;41.78;99698.15;112527;1244;19545;-73
2024/01/17 08:07:53;;;;;;;;;7.00;7.00;;;;;21.11;41.64;99697.98;112296;1260;19920;-73
2024/01/17 08:10:21;;;;;;;;;9.00;7.00;;;;;21.10;41.48;99691.85;112457;1259;20498;-73
2024/01/17 08:12:48;;;;;;;;;9.00;9.00;;;;;21.09;41.71;99690.30;112320;1260;18529;-73
2024/01/17 08:15:16;;;;;;;;;7.00;7.00;;;;;21.12;41.35;99692.69;112482;1260;18619;-74
2024/01/17 08:17:44;;;;;;;;;6.00;6.00;;;;;21.19;41.41;99694.86;112345;1255;20978;-72
2024/01/17 08:20:12;;;;;;;;;7.00;7.00;;;;;21.33;41.23;99692.41;112442;1259;18192;-73
2024/01/17 08:22:39;;;;;;;;;7.00;7.00;;;;;21.44;41.13;99690.80;112262;1260;18625;-75
2024/01/17 08:25:07;;;;;;;;;10.00;9.00;;;;;21.47;40.90;99682.63;112327;1247;21993;-75
2024/01/17 08:27:35;;;;;;;;;9.00;7.00;;;;;21.54;40.76;99680.48;112257;1252;18147;-73
2024/01/17 08:30:04;;;;;;;;;7.00;7.00;;;;;21.53;40.99;99669.54;112415;1260;18845;-73
2024/01/17 08:32:31;;;;;;;;;15.00;12.00;;;;;21.62;40.81;99660.27;112454;1247;21001;-73
2024/01/17 08:34:59;;;;;;;;;6.50;6.50;;;;;21.69;40.15;99645.53;112392;1244;18133;-72
2024/01/17 08:37:26;;;;;;;;;9.00;9.00;;;;;21.77;40.20;99642.96;112376;1244;18536;-75
2024/01/17 08:39:54;;;;;;;;;16.00;15.00;;;;;21.78;39.76;99632.87;112361;1260;19326;-72
2024/01/17 08:42:21;;;;;;;;;12.00;9.00;;;;;21.76;38.85;99631.83;112448;1244;19511;-73
2024/01/17 08:44:50;;;;;;;;;12.50;10.00;;;;;21.76;39.40;99632.40;112340;1253;20649;-73
2024/01/17 08:47:17;;;;;;;;;14.00;13.00;;;;;21.69;39.90;99632.34;112418;1260;19506;-74
2024/01/17 08:49:45;;;;;;;;;7.00;7.00;;;;;21.71;39.86;99627.51;112023;1260;199283;-72
2024/01/17 08:59:30;;;;;;;;;296.00;293.00;;;;;;;;106490;1305;31997;-68
2024/01/17 09:02:34;;;;;;;;;275.00;275.00;;;;;;;;32763;1305;208008;-69
2024/01/17 09:03:53;;;;;;;;;375.50;373.50;;;;;20.12;41.53;99573.77;32652;1311;54255;-70
2024/01/17 09:04:41;;;;;;;;;271.00;271.00;;;;;-98.40;7.21;19912.33;30374;1286;1002686;-69
2024/01/17 09:05:28;;;;;;;;;332.50;332.50;;;;;-128.00;-1.00;-1.00;29765;1280;1007603;-70
2024/01/17 09:08:33;;;;;;;;;112.00;99.00;;;;;20.69;44.87;99569.35;33128;1303;19169;-70
2024/01/17 09:09:22;;;;;;;;;100.50;82.50;;;;;20.67;43.37;99571.02;33569;1282;18511;-70
2024/01/17 09:10:09;;;;;;;;;96.00;77.00;;;;;20.23;42.96;99571.55;33557;1282;18504;-70
2024/01/17 09:10:56;;;;;;;;;96.00;78.00;;;;;20.00;42.54;99569.11;33784;1269;86087;-70
2024/01/17 09:11:44;;;;;;;;;99.50;82.50;;;;;19.88;42.01;99568.89;33866;1269;21340;-71
2024/01/17 09:12:31;;;;;;;;;105.50;90.00;;;;;19.83;41.81;99567.33;33838;1254;21849;-71
2024/01/17 09:13:19;;;;;;;;;4334.00;4334.00;;;;;19.76;41.52;99562.36;33869;1269;18560;-71
2024/01/17 09:14:06;;;;;;;;;5418.50;5418.50;;;;;19.82;41.85;99560.66;33854;1269;20463;-70
2024/01/17 09:14:54;;;;;;;;;5315.00;5315.00;;;;;19.76;41.93;99555.34;33858;1269;20407;-70
2024/01/17 09:15:42;;;;;;;;;5299.00;5299.00;;;;;19.73;41.84;99551.96;33861;1254;19272;-70
2024/01/17 09:16:30;;;;;;;;;5299.00;5299.00;;;;;19.72;41.77;99548.66;33759;1254;20550;-71
2024/01/17 09:17:18;;;;;;;;;5418.00;5418.00;;;;;19.72;41.94;99543.39;33794;1256;23806;-71
2024/01/17 09:18:05;;;;;;;;;5249.00;5249.00;;;;;19.70;41.83;99543.41;33825;1270;21515;-70
2024/01/17 09:18:53;;;;;;;;;5232.50;5232.50;;;;;19.70;41.74;99537.72;33791;1254;21972;-71
2024/01/17 09:19:41;;;;;;;;;;;;;;;19.67;41.64;99530.54;33859;1257;21979;-71
2024/01/17 09:20:28;;;;;;;;;5184.00;5184.00;;;;;19.64;41.32;99528.89;33850;1270;17588;-71
2024/01/17 09:21:16;;;;;;;;;;;;;;;19.64;41.29;99525.02;33778;1270;19043;-71
2024/01/17 09:22:03;;;;;;;;;5137.00;5137.00;;;;;19.63;41.31;99525.86;33862;1263;21215;-74
2024/01/17 09:23:21;;;;;;;;;4713.67;4713.67;;;;;19.93;41.68;99520.44;33004;1294;207026;-70
2024/01/17 09:25:02;;;;;;;;;4827.00;4827.00;;;;;20.25;42.13;99520.17;32962;1286;207305;-66
2024/01/17 09:26:15;;;;;;;;;92.75;77.75;;;;;20.73;41.08;99518.81;33057;1295;30505;-68
2024/01/17 09:27:03;;;;;;;;;74.00;62.00;;;;;20.53;40.60;99517.89;33542;1282;18145;-68
2024/01/17 09:27:50;;;;;;;;;81.00;67.50;;;;;20.22;40.49;99518.42;33534;1268;21843;-68
2024/01/17 09:28:37;;;;;;;;;83.50;69.50;;;;;20.10;40.19;99514.33;33502;1282;23673;-68
2024/01/17 09:29:25;;;;;;;;;89.00;73.00;;;;;19.99;39.92;99515.99;33534;1282;19875;-67
2024/01/17 09:30:13;;;;;;;;;118.00;110.00;;;;;19.83;40.73;99512.17;33522;1282;19465;-68
2024/01/17 09:31:00;;;;;;;;;5384.00;5384.00;;;;;19.78;41.08;99513.70;34062;1267;19997;-69
2024/01/17 09:31:47;;;;;;;;;95.50;78.50;;;;;19.75;41.08;99509.13;33697;1282;20465;-69
2024/01/17 09:32:37;;;;;;;;;86.50;72.00;;;;;19.72;41.04;99508.63;33522;1267;20907;-69
2024/01/17 09:33:25;;;;;;;;;94.00;77.00;;;;;19.69;41.27;99509.86;33532;1282;19549;-69
2024/01/17 09:34:12;;;;;;;;;92.50;76.00;;;;;19.66;41.25;99509.09;33715;1273;19521;-69
2024/01/17 09:35:00;;;;;;;;;62.50;56.00;;;;;19.68;41.57;99507.15;33779;1271;21982;-68
2024/01/17 09:35:48;;;;;;;;;64.00;55.00;;;;;19.71;41.41;99504.29;33757;1256;23498;-68
2024/01/17 09:36:35;;;;;;;;;89.00;74.00;;;;;19.71;41.16;99503.48;33778;1271;18133;-68
2024/01/17 09:37:23;;;;;;;;;;;;;;;19.69;41.36;99503.88;33773;1271;18270;-69
2024/01/17 09:38:12;;;;;;;;;102.50;86.00;;;;;19.67;41.35;99502.17;33778;1272;18844;-69
2024/01/17 09:38:59;;;;;;;;;84.00;71.00;;;;;19.69;41.24;99501.70;33705;1272;21900;-69
2024/01/17 09:39:47;;;;;;;;;73.00;62.00;;;;;19.68;41.42;99500.48;33730;1273;21991;-69
2024/01/17 09:40:34;;;;;;;;;338.00;329.50;;;;;19.67;41.17;99500.76;33685;1271;214321;-69
2024/01/17 09:41:22;;;;;;;;;93.50;79.50;;;;;19.66;41.36;99501.64;33858;1270;18584;-69
2024/01/17 09:42:10;;;;;;;;;107.00;90.00;;;;;19.65;41.23;99496.16;33836;1270;19475;-69
2024/01/17 09:42:58;;;;;;;;;84.50;69.00;;;;;19.64;41.19;99494.98;33834;1270;19917;-69
2024/01/17 09:43:45;;;;;;;;;82.50;69.50;;;;;19.62;41.09;99491.65;33857;1270;20730;-69
2024/01/17 09:44:33;;;;;;;;;89.00;73.67;;;;;19.61;41.06;99491.27;33834;1270;18228;-68
2024/01/17 09:45:20;;;;;;;;;79.00;66.00;;;;;19.62;41.32;99488.70;33860;1256;19710;-68
2024/01/17 09:46:12;;;;;;;;;83.00;71.00;;;;;19.63;41.33;99483.80;33858;1270;18803;-68
2024/01/17 09:46:59;;;;;;;;;;;;;;;19.63;41.20;99485.21;33851;1270;18155;-69
2024/01/17 09:47:47;;;;;;;;;76.00;65.00;;;;;19.66;41.41;99487.02;33848;1262;19280;-69
2024/01/17 09:48:34;;;;;;;;;93.00;76.00;;;;;19.66;41.27;99484.63;33857;1270;19660;-68
2024/01/17 09:49:22;;;;;;;;;;;;;;;19.64;41.32;99487.22;33878;1270;19523;-69
2024/01/17 09:50:10;;;;;;;;;87.00;73.00;;;;;19.63;41.24;99483.91;33874;1270;21957;-69
2024/01/17 09:50:58;;;;;;;;;91.00;75.00;;;;;19.63;41.26;99483.80;33896;1256;18158;-68
2024/01/17 09:51:45;;;;;;;;;76.00;64.00;;;;;19.62;41.37;99482.14;33872;1270;19682;-68
2024/01/17 09:52:33;;;;;;;;;86.00;71.00;;;;;19.60;41.36;99480.53;33868;1270;19484;-68
2024/01/17 09:53:20;;;;;;;;;84.00;70.00;;;;;19.59;41.23;99479.10;33871;1256;19571;-68
2024/01/17 09:54:08;;;;;;;;;94.00;77.00;;;;;19.57;40.72;99476.83;33858;1270;18160;-68
2024/01/17 09:54:55;;;;;;;;;76.00;64.00;;;;;19.56;41.12;99474.83;33880;1256;19717;-69
2024/01/17 09:55:42;;;;;;;;;70.50;61.00;;;;;19.57;41.04;99475.69;33857;1270;19576;-69